メインページ
METAR-TAF:

METAR-TAF

空港 :

サラーラ国際空港

サラーラ, オマーン

緯度: 17-02N, 経度: 054-05E, 海抜: 20m

現時点の気象観測

当レポートは42分前の08:50(UTC)に作成
の風 9kt
気温 27°C
湿度 84%
気圧 1004 hPa
視程: 7000m
高度1000ftの雲は散在している
高度2500ftの千切れ雲あり

METAR: OOSA 230850Z 17009KT 7000 SCT010 BKN025 27/24 Q1004 NOSIG

時間: 13:32 (09:32 UTC)

予報

当レポートは3時間52分前の05:40(UTC)に作成
予報は23日の 06時(UTC)から 24日の 12時(UTC)まで有効
南/南東の風 7kt
視程: 4000m
高度600ftの雲は散在している
高度1200ftの千切れ雲あり
高度2000ftの曇り
煙霧

TAF: OOSA 230540Z 2306/2412 16007KT 4000 HZ SCT006 BKN012 OVC020

4,000以上の空港の気象観測と天気予報(METAR報とTAF報)

利用可能な観測所は地図上に黄色い丸と赤い丸で示す。

丸の上にカーソルを重ねると観測所名を参照できる。

次にクリックすると気象観測と天気予報を参照できる。

マップの切り替え:黒色「×」印の緑ボタンをクリックして拡大、「-」印の緑ボタンをクリックして縮小、緑色の三角印をクリックして隣りの地図に切り替え


METAR-TAF: